createdAt,value
2022-10-13T00:01:17.977Z,22.88
2022-10-13T00:03:48.020Z,20.60
2022-10-13T00:06:21.492Z,30.58
2022-10-13T00:08:48.336Z,29.98
2022-10-13T00:11:20.281Z,17.98
2022-10-13T00:13:47.261Z,24.63
2022-10-13T00:16:15.342Z,24.40
2022-10-13T00:18:42.340Z,27.02
2022-10-13T00:21:10.325Z,23.17
2022-10-13T00:23:37.545Z,21.77
2022-10-13T00:26:05.524Z,22.73
2022-10-13T00:28:32.467Z,22.67
2022-10-13T00:30:59.343Z,14.48
2022-10-13T00:33:26.180Z,34.75
2022-10-13T00:35:53.030Z,40.90
2022-10-13T00:38:20.978Z,27.58
2022-10-13T00:40:57.830Z,25.70
2022-10-13T00:44:10.041Z,22.50
2022-10-13T00:46:39.685Z,27.00
2022-10-13T00:49:11.573Z,21.20
2022-10-13T00:54:07.755Z,21.45
2022-10-13T00:56:34.668Z,15.10
2022-10-13T00:59:01.597Z,28.60
2022-10-13T01:01:28.509Z,34.20
2022-10-13T01:03:55.337Z,26.88
2022-10-13T01:06:23.866Z,24.83
2022-10-13T01:08:51.101Z,22.50
2022-10-13T01:11:20.700Z,26.77
2022-10-13T01:14:01.647Z,22.92
2022-10-13T01:16:32.156Z,17.23
2022-10-13T01:19:25.710Z,28.50
2022-10-13T01:22:01.516Z,19.67
2022-10-13T01:25:24.737Z,22.30
2022-10-13T01:28:25.578Z,21.48
2022-10-13T01:30:55.500Z,27.30
2022-10-13T01:33:58.818Z,29.10
2022-10-13T01:36:42.559Z,22.42
2022-10-13T01:39:24.497Z,30.55
2022-10-13T01:41:53.544Z,27.75
2022-10-13T01:44:27.364Z,29.35
2022-10-13T01:46:54.199Z,24.00
2022-10-13T01:49:24.527Z,25.85
2022-10-13T01:51:51.330Z,18.42
2022-10-13T01:54:18.189Z,21.20
2022-10-13T01:56:53.189Z,23.73
2022-10-13T01:59:20.131Z,22.50
2022-10-13T02:02:04.882Z,32.92
2022-10-13T02:04:49.966Z,32.00
2022-10-13T02:07:28.362Z,29.55
2022-10-13T02:09:58.394Z,21.27
2022-10-13T02:12:39.616Z,27.38
2022-10-13T02:15:08.083Z,23.45
2022-10-13T02:17:34.897Z,21.70
2022-10-13T02:20:01.740Z,19.77
2022-10-13T02:22:31.154Z,22.25
2022-10-13T02:24:59.315Z,22.35
2022-10-13T02:27:27.471Z,33.10
2022-10-13T02:29:56.130Z,25.67
2022-10-13T02:32:27.206Z,24.23
2022-10-13T02:34:54.078Z,33.35
2022-10-13T02:37:20.925Z,15.93
2022-10-13T02:39:47.787Z,17.67
2022-10-13T02:42:16.884Z,29.67
2022-10-13T02:44:43.823Z,31.30
2022-10-13T02:47:10.697Z,20.10
2022-10-13T02:49:37.505Z,39.97
2022-10-13T02:52:04.327Z,30.48
2022-10-13T02:54:31.179Z,25.42
2022-10-13T02:56:57.997Z,25.88
2022-10-13T02:59:25.116Z,22.95
2022-10-13T03:01:51.931Z,26.50
2022-10-13T03:04:18.767Z,27.55
2022-10-13T03:06:45.600Z,28.92
2022-10-13T03:09:13.828Z,33.95
2022-10-13T03:11:49.941Z,23.25
2022-10-13T03:14:16.860Z,27.83
2022-10-13T03:16:43.675Z,23.85
2022-10-13T03:19:10.994Z,27.90
2022-10-13T03:21:38.680Z,24.40
2022-10-13T03:24:05.884Z,25.92
2022-10-13T03:26:33.287Z,39.53
2022-10-13T03:29:00.111Z,35.25
2022-10-13T03:31:27.036Z,39.17
2022-10-13T03:34:01.939Z,27.67
2022-10-13T03:36:28.731Z,25.25
2022-10-13T03:38:55.574Z,27.15
2022-10-13T03:41:22.597Z,36.58
2022-10-13T03:43:52.100Z,32.35
2022-10-13T03:46:19.211Z,25.75
2022-10-13T03:48:47.299Z,27.13
2022-10-13T03:51:16.761Z,40.30
2022-10-13T03:53:47.017Z,33.85
2022-10-13T03:56:16.094Z,31.50
2022-10-13T03:58:54.084Z,38.17
2022-10-13T04:01:25.566Z,27.02
2022-10-13T04:03:52.968Z,32.50
2022-10-13T04:06:19.906Z,33.22
2022-10-13T04:08:46.808Z,28.70
2022-10-13T04:11:14.366Z,37.50
2022-10-13T04:13:42.621Z,26.30
2022-10-13T04:16:20.495Z,42.10
2022-10-13T04:18:56.131Z,34.97
2022-10-13T04:21:23.121Z,42.10
2022-10-13T04:23:50.121Z,33.05
2022-10-13T04:26:18.543Z,33.30
2022-10-13T04:28:47.598Z,28.50
2022-10-13T04:31:14.747Z,35.10
2022-10-13T04:33:41.697Z,33.83
2022-10-13T04:36:10.003Z,22.60
2022-10-13T04:38:36.860Z,25.80
2022-10-13T04:41:04.674Z,28.80
2022-10-13T04:43:31.895Z,36.60
2022-10-13T04:46:03.262Z,37.38
2022-10-13T04:48:30.161Z,34.63
2022-10-13T04:51:10.587Z,30.73
2022-10-13T04:53:37.557Z,23.20
2022-10-13T04:56:09.641Z,35.67
2022-10-13T04:58:37.014Z,24.83
2022-10-13T05:01:04.798Z,31.92
2022-10-13T05:03:31.904Z,29.00
2022-10-13T05:05:58.926Z,32.67
2022-10-13T05:08:25.856Z,30.17
2022-10-13T05:10:57.129Z,25.15
2022-10-13T05:13:25.102Z,28.58
2022-10-13T05:15:52.009Z,26.08
2022-10-13T05:18:21.650Z,33.45
2022-10-13T05:20:48.664Z,28.65
2022-10-13T05:23:15.647Z,28.65
2022-10-13T05:25:42.550Z,42.90
2022-10-13T05:28:12.814Z,42.08
2022-10-13T05:30:39.678Z,31.55
2022-10-13T05:33:06.449Z,35.80
2022-10-13T05:35:33.289Z,39.92
2022-10-13T05:38:00.100Z,31.38
2022-10-13T05:40:28.474Z,29.05
2022-10-13T05:43:00.495Z,27.70
2022-10-13T05:45:28.042Z,33.08
2022-10-13T05:47:54.907Z,22.65
2022-10-13T05:50:21.773Z,33.17
2022-10-13T05:52:48.573Z,32.08
2022-10-13T05:55:15.982Z,33.30
2022-10-13T05:57:48.190Z,24.00
2022-10-13T06:00:16.219Z,28.60
2022-10-13T06:02:56.077Z,30.88
2022-10-13T06:05:24.118Z,24.30
2022-10-13T06:07:52.760Z,18.60
2022-10-13T06:10:19.706Z,19.80
2022-10-13T06:12:47.023Z,25.80
2022-10-13T06:15:13.936Z,24.17
2022-10-13T06:17:40.846Z,22.95
2022-10-13T06:20:08.517Z,27.15
2022-10-13T06:22:35.741Z,18.50
2022-10-13T06:25:03.376Z,19.70
2022-10-13T06:27:30.771Z,18.13
2022-10-13T06:29:59.355Z,25.85
2022-10-13T06:32:26.222Z,27.02
2022-10-13T06:34:53.013Z,25.75
2022-10-13T06:37:24.702Z,26.30
2022-10-13T06:39:53.915Z,24.77
2022-10-13T06:42:21.217Z,30.88
2022-10-13T06:45:00.873Z,20.38
2022-10-13T06:47:27.718Z,18.55
2022-10-13T06:49:54.579Z,36.28
2022-10-13T06:52:22.158Z,19.38
2022-10-13T06:54:49.193Z,28.60
2022-10-13T06:57:16.079Z,35.20
2022-10-13T06:59:44.328Z,19.95
2022-10-13T07:02:11.388Z,17.83
2022-10-13T07:04:38.224Z,29.70
2022-10-13T07:07:05.053Z,24.15
2022-10-13T07:09:32.076Z,25.20
2022-10-13T07:11:59.487Z,20.55
2022-10-13T07:14:26.392Z,24.00
2022-10-13T07:16:53.361Z,22.27
2022-10-13T07:19:21.417Z,25.73
2022-10-13T07:21:48.221Z,32.78
2022-10-13T07:24:15.061Z,28.52
2022-10-13T07:26:41.916Z,22.10
2022-10-13T07:29:08.809Z,33.72
2022-10-13T07:31:35.655Z,30.30
2022-10-13T07:34:04.720Z,35.40
2022-10-13T07:36:32.668Z,33.75
2022-10-13T07:39:00.340Z,23.25
2022-10-13T07:41:27.218Z,30.55
2022-10-13T07:43:58.684Z,32.40
2022-10-13T07:46:25.767Z,34.33
2022-10-13T07:48:53.863Z,29.52
2022-10-13T07:51:21.082Z,31.45
2022-10-13T07:53:50.962Z,23.27
2022-10-13T07:56:17.841Z,30.77
2022-10-13T07:58:46.497Z,27.42
2022-10-13T08:01:13.513Z,31.20
2022-10-13T08:03:42.923Z,28.33
2022-10-13T08:06:16.912Z,23.20
2022-10-13T08:08:43.838Z,25.75
2022-10-13T08:11:16.364Z,26.60
2022-10-13T08:13:49.071Z,25.17
2022-10-13T08:16:20.565Z,22.60
2022-10-13T08:18:47.984Z,25.70
2022-10-13T08:21:45.949Z,19.98
2022-10-13T08:24:05.730Z,21.75
2022-10-13T08:26:32.548Z,25.92
2022-10-13T08:31:46.408Z,23.17
2022-10-13T08:34:13.478Z,25.58
2022-10-13T08:36:40.568Z,37.45
2022-10-13T08:39:07.552Z,24.73
2022-10-13T08:41:39.265Z,22.60
2022-10-13T08:47:51.102Z,17.75
2022-10-13T08:50:22.100Z,25.90
2022-10-13T08:52:59.869Z,25.80
2022-10-13T08:55:45.131Z,26.15
2022-10-13T08:58:29.251Z,29.90
2022-10-13T09:01:10.908Z,19.08
2022-10-13T09:04:02.418Z,21.55
2022-10-13T09:06:32.678Z,21.23
2022-10-13T09:09:05.192Z,22.10
2022-10-13T09:14:03.711Z,19.67
2022-10-13T09:16:41.853Z,25.58
2022-10-13T09:19:25.142Z,22.10
2022-10-13T09:21:56.879Z,20.58
2022-10-13T09:24:24.794Z,23.05
2022-10-13T09:27:11.763Z,26.27
2022-10-13T09:29:39.798Z,21.05
2022-10-13T09:32:14.430Z,19.63
2022-10-13T09:34:41.277Z,26.00
2022-10-13T09:37:21.233Z,18.75
2022-10-13T09:40:09.379Z,18.50
2022-10-13T09:42:36.260Z,21.48
2022-10-13T09:45:18.103Z,13.05
2022-10-13T09:48:04.654Z,15.75
2022-10-13T09:50:32.019Z,11.30
2022-10-13T09:53:20.939Z,11.73
2022-10-13T09:55:49.713Z,12.88
2022-10-13T09:58:28.202Z,16.60
2022-10-13T10:00:55.057Z,17.73
2022-10-13T10:03:27.976Z,18.63
2022-10-13T10:05:56.506Z,16.17
2022-10-13T10:08:33.804Z,16.92
2022-10-13T10:11:10.548Z,15.70
2022-10-13T10:13:37.392Z,12.85
2022-10-13T10:16:31.435Z,16.38
2022-10-13T10:19:42.139Z,18.08
2022-10-13T10:22:14.320Z,9.43
2022-10-13T10:25:07.924Z,13.52
2022-10-13T10:27:46.438Z,16.90
2022-10-13T10:30:17.990Z,11.40
2022-10-13T10:32:51.351Z,11.40
2022-10-13T10:35:48.703Z,9.30
2022-10-13T10:38:40.848Z,13.15
2022-10-13T10:41:20.794Z,12.93
2022-10-13T10:44:04.262Z,10.02
2022-10-13T10:46:34.756Z,13.25
2022-10-13T10:49:12.167Z,10.25
2022-10-13T10:51:39.396Z,10.82
2022-10-13T10:54:49.040Z,14.55
2022-10-13T10:57:31.562Z,16.58
2022-10-13T11:00:06.607Z,14.55
2022-10-13T11:02:52.436Z,13.50
2022-10-13T11:05:19.404Z,9.60
2022-10-13T11:07:46.577Z,14.60
2022-10-13T11:10:13.423Z,15.30
2022-10-13T11:12:52.513Z,14.07
2022-10-13T11:15:42.662Z,9.77
2022-10-13T12:31:43.009Z,14.48
2022-10-13T12:34:28.121Z,15.98
2022-10-13T12:37:17.984Z,16.27
2022-10-13T13:28:19.247Z,11.32
2022-10-13T13:30:46.757Z,16.33
2022-10-13T13:33:13.693Z,16.73
2022-10-13T13:35:40.698Z,10.93
2022-10-13T13:38:07.694Z,19.40
2022-10-13T13:40:34.679Z,11.23
2022-10-13T13:43:01.896Z,13.90
2022-10-13T13:45:31.195Z,13.20
2022-10-13T13:48:00.790Z,14.32
2022-10-13T13:50:33.112Z,11.00
2022-10-13T13:53:00.271Z,23.42
2022-10-13T13:55:27.530Z,12.65
2022-10-13T13:57:54.468Z,15.73
2022-10-13T14:00:21.998Z,15.00
2022-10-13T14:02:55.557Z,13.48
2022-10-13T14:05:22.592Z,17.25
2022-10-13T14:07:49.620Z,15.23
2022-10-13T14:10:16.726Z,16.27
2022-10-13T14:12:43.749Z,13.10
2022-10-13T14:15:11.105Z,13.52
2022-10-13T14:17:38.068Z,12.82
2022-10-13T14:20:05.475Z,12.35
2022-10-13T14:22:40.197Z,17.73
2022-10-13T14:25:07.667Z,14.95
2022-10-13T14:27:35.147Z,16.42
2022-10-13T14:30:02.710Z,15.20
2022-10-13T14:32:29.699Z,15.48
2022-10-13T14:34:56.638Z,13.70
2022-10-13T14:37:26.721Z,16.02
2022-10-13T14:39:55.979Z,12.50
2022-10-13T14:42:23.149Z,13.25
2022-10-13T14:44:50.182Z,14.15
2022-10-13T14:47:17.230Z,14.05
2022-10-13T14:49:44.171Z,12.93
2022-10-13T14:52:11.376Z,10.82
2022-10-13T14:54:42.471Z,16.88
2022-10-13T14:59:43.315Z,19.17
2022-10-13T15:02:11.394Z,15.80
2022-10-13T15:04:38.429Z,15.23
2022-10-13T15:07:05.666Z,17.17
2022-10-13T15:09:45.433Z,18.88
2022-10-13T15:12:21.188Z,23.10
2022-10-13T15:14:50.763Z,15.98
2022-10-13T15:17:17.917Z,15.57
2022-10-13T15:19:44.869Z,20.67
2022-10-13T15:22:12.409Z,13.25
2022-10-13T15:24:39.356Z,19.75
2022-10-13T15:27:06.287Z,11.43
2022-10-13T15:29:34.114Z,18.67
2022-10-13T15:32:11.741Z,16.95
2022-10-13T15:34:39.808Z,20.05
2022-10-13T15:37:07.104Z,10.15
2022-10-13T15:39:34.046Z,16.58
2022-10-13T15:42:01.179Z,17.00
2022-10-13T15:44:45.445Z,13.18
2022-10-13T15:47:18.500Z,15.63
2022-10-13T15:49:45.440Z,16.63
2022-10-13T15:52:12.643Z,14.25
2022-10-13T15:54:40.913Z,15.75
2022-10-13T15:57:08.256Z,14.25
2022-10-13T15:59:35.156Z,27.08
2022-10-13T16:02:02.785Z,20.52
2022-10-13T16:04:33.493Z,16.90
2022-10-13T16:07:03.517Z,20.27
2022-10-13T16:09:31.164Z,18.98
2022-10-13T16:11:58.084Z,13.18
2022-10-13T16:14:25.279Z,14.88
2022-10-13T16:16:52.452Z,14.57
2022-10-13T16:19:19.505Z,17.13
2022-10-13T16:21:47.073Z,16.02
2022-10-13T16:24:14.985Z,22.60
2022-10-13T16:26:41.876Z,18.20
2022-10-13T16:29:08.853Z,12.30
2022-10-13T16:31:35.838Z,14.45
2022-10-13T16:34:04.212Z,14.80
2022-10-13T16:36:31.315Z,13.55
2022-10-13T16:38:58.615Z,20.45
2022-10-13T16:41:25.902Z,20.38
2022-10-13T16:43:56.599Z,16.90
2022-10-13T16:46:23.512Z,18.15
2022-10-13T16:48:50.452Z,13.25
2022-10-13T16:51:26.841Z,14.43
2022-10-13T16:54:03.591Z,14.38
2022-10-13T16:56:31.360Z,17.05
2022-10-13T16:59:02.834Z,15.13
2022-10-13T17:01:30.188Z,17.10
2022-10-13T17:03:57.167Z,27.70
2022-10-13T17:06:25.837Z,31.08
2022-10-13T17:08:57.612Z,15.93
2022-10-13T17:11:26.430Z,16.10
2022-10-13T17:13:53.493Z,13.57
2022-10-13T17:16:20.574Z,19.30
2022-10-13T17:18:47.560Z,17.65
2022-10-13T17:21:15.605Z,17.42
2022-10-13T17:23:47.337Z,17.75
2022-10-13T17:26:15.787Z,18.98
2022-10-13T17:28:43.045Z,16.70
2022-10-13T17:31:13.882Z,12.60
2022-10-13T17:33:41.510Z,15.85
2022-10-13T17:36:13.431Z,11.93
2022-10-13T17:38:40.488Z,15.77
2022-10-13T17:41:07.859Z,18.70
2022-10-13T17:43:37.068Z,17.20
2022-10-13T17:46:34.448Z,15.05
2022-10-13T17:48:56.288Z,18.75
2022-10-13T17:51:23.518Z,25.80
2022-10-13T17:53:51.435Z,23.58
2022-10-13T17:56:21.453Z,20.80
2022-10-13T17:58:49.671Z,12.50
2022-10-13T18:01:44.183Z,19.98
2022-10-13T18:04:15.216Z,18.45
2022-10-13T18:06:45.336Z,16.77
2022-10-13T18:09:19.668Z,14.55
2022-10-13T18:11:50.572Z,16.23
2022-10-13T18:14:22.794Z,14.45
2022-10-13T18:16:50.742Z,18.40
2022-10-13T18:19:17.969Z,14.73
2022-10-13T18:21:45.104Z,23.83
2022-10-13T18:24:14.992Z,13.10
2022-10-13T18:26:42.046Z,12.88
2022-10-13T18:29:09.179Z,23.05
2022-10-13T18:31:39.403Z,13.05
2022-10-13T18:34:08.675Z,16.33
2022-10-13T18:36:56.178Z,24.45
2022-10-13T18:39:26.721Z,22.33
2022-10-13T18:41:55.685Z,17.52
2022-10-13T18:44:31.836Z,20.77
2022-10-13T18:46:58.804Z,14.82
2022-10-13T18:49:35.922Z,17.75
2022-10-13T18:52:04.597Z,15.40
2022-10-13T18:54:31.666Z,16.83
2022-10-13T18:56:58.679Z,12.85
2022-10-13T18:59:25.574Z,21.27
2022-10-13T19:01:52.564Z,24.75
2022-10-13T19:04:21.491Z,13.75
2022-10-13T19:06:51.156Z,17.40
2022-10-13T19:09:18.332Z,20.05
2022-10-13T19:11:45.294Z,18.27
2022-10-13T19:14:16.162Z,17.25
2022-10-13T19:16:43.729Z,15.90
2022-10-13T19:19:13.971Z,17.10
2022-10-13T19:21:41.243Z,16.33
2022-10-13T19:24:15.010Z,18.33
2022-10-13T19:26:41.989Z,22.13
2022-10-13T19:29:10.677Z,30.70
2022-10-13T19:31:38.472Z,21.15
2022-10-13T19:34:10.359Z,24.83
2022-10-13T19:36:39.677Z,21.55
2022-10-13T19:39:18.007Z,21.00
2022-10-13T19:41:45.600Z,28.73
2022-10-13T19:44:13.091Z,23.92
2022-10-13T19:46:40.984Z,26.85
2022-10-13T19:49:08.246Z,28.33
2022-10-13T19:51:37.493Z,26.95
2022-10-13T19:54:05.053Z,18.20
2022-10-13T19:56:35.447Z,17.10
2022-10-13T19:59:04.817Z,23.65
2022-10-13T20:01:32.211Z,24.30
2022-10-13T20:04:00.094Z,25.85
2022-10-13T20:06:29.936Z,21.80
2022-10-13T20:08:58.738Z,22.08
2022-10-13T20:11:25.919Z,23.80
2022-10-13T20:13:53.441Z,24.48
2022-10-13T20:16:22.761Z,23.45
2022-10-13T20:18:57.637Z,21.88
2022-10-13T20:21:25.413Z,21.77
2022-10-13T20:23:52.553Z,18.30
2022-10-13T20:26:20.476Z,15.13
2022-10-13T20:28:48.168Z,31.98
2022-10-13T20:31:16.181Z,15.13
2022-10-13T20:33:43.531Z,19.75
2022-10-13T20:36:15.720Z,16.40
2022-10-13T20:38:45.232Z,21.95
2022-10-13T20:41:16.727Z,19.83
2022-10-13T20:43:46.718Z,24.05
2022-10-13T20:46:13.803Z,21.73
2022-10-13T20:49:08.885Z,19.65
2022-10-13T20:51:28.327Z,15.15
2022-10-13T20:53:55.291Z,20.25
2022-10-13T20:56:25.893Z,22.73
2022-10-13T20:58:53.268Z,19.02
2022-10-13T21:01:21.363Z,16.45
2022-10-13T21:03:54.752Z,19.77
2022-10-13T21:08:49.255Z,13.70
2022-10-13T21:11:17.472Z,19.98
2022-10-13T21:13:44.920Z,25.25
2022-10-13T21:16:23.087Z,18.67
2022-10-13T21:18:51.135Z,19.13
2022-10-13T21:21:22.594Z,19.02
2022-10-13T21:24:01.705Z,19.20
2022-10-13T21:26:32.221Z,27.67
2022-10-13T21:28:59.388Z,15.23
2022-10-13T21:31:27.528Z,14.15
2022-10-13T21:33:55.169Z,12.40
2022-10-13T21:36:23.919Z,13.85
2022-10-13T21:38:52.390Z,17.75
2022-10-13T21:41:19.542Z,19.95
2022-10-13T21:43:47.249Z,16.92
2022-10-13T21:46:19.455Z,15.98
2022-10-13T21:48:57.261Z,18.17
2022-10-13T21:51:29.734Z,18.85
2022-10-13T21:54:05.135Z,13.35
2022-10-13T21:56:32.399Z,15.57
2022-10-13T21:59:00.008Z,16.17
2022-10-13T22:01:28.051Z,20.83
2022-10-13T22:03:59.341Z,18.48
2022-10-13T22:06:26.533Z,24.38
2022-10-13T22:08:56.222Z,19.00
2022-10-13T22:11:24.618Z,20.33
2022-10-13T22:13:51.635Z,16.10
2022-10-13T22:16:20.474Z,16.85
2022-10-13T22:18:52.152Z,19.52
2022-10-13T22:21:21.106Z,13.27
2022-10-13T22:23:48.213Z,20.10
2022-10-13T22:26:15.856Z,22.73
2022-10-13T22:28:44.518Z,16.20
2022-10-13T22:31:12.748Z,22.92
2022-10-13T22:33:40.669Z,22.70
2022-10-13T22:36:17.719Z,22.13
2022-10-13T22:38:45.322Z,21.02
2022-10-13T22:41:13.253Z,18.40
2022-10-13T22:43:41.747Z,16.42
2022-10-13T22:46:12.568Z,14.52
2022-10-13T22:48:40.848Z,14.65
2022-10-13T22:51:09.555Z,18.23
2022-10-13T22:53:36.549Z,31.13
2022-10-13T22:56:07.687Z,25.27
2022-10-13T22:58:34.755Z,20.45
2022-10-13T23:01:11.927Z,17.02
2022-10-13T23:03:39.206Z,26.48
2022-10-13T23:06:06.796Z,17.23
2022-10-13T23:08:34.078Z,21.95
2022-10-13T23:11:01.032Z,18.00
2022-10-13T23:13:27.984Z,21.23
2022-10-13T23:16:07.884Z,14.75
2022-10-13T23:18:37.905Z,17.73
2022-10-13T23:21:08.770Z,18.67
2022-10-13T23:23:35.862Z,26.20
2022-10-13T23:26:07.291Z,17.38
2022-10-13T23:28:34.689Z,21.27
2022-10-13T23:31:03.258Z,24.80
2022-10-13T23:33:30.455Z,26.10
2022-10-13T23:35:57.992Z,16.50
2022-10-13T23:38:25.265Z,20.35
2022-10-13T23:40:52.258Z,18.25
2022-10-13T23:43:19.597Z,29.50
2022-10-13T23:45:46.494Z,22.15
2022-10-13T23:48:13.767Z,17.73
2022-10-13T23:50:40.669Z,30.40
2022-10-13T23:53:08.030Z,21.63
2022-10-13T23:55:38.471Z,13.07
2022-10-13T23:58:06.008Z,14.73
